HST,Max TemperatureF,Mean TemperatureF,Min TemperatureF,Max Dew PointF,MeanDew PointF,Min DewpointF,Max Humidity, Mean Humidity, Min Humidity, Max Sea Level PressureIn, Mean Sea Level PressureIn, Min Sea Level PressureIn, Max VisibilityMiles, Mean VisibilityMiles, Min VisibilityMiles, Max Wind SpeedMPH, Mean Wind SpeedMPH, Max Gust SpeedMPH,PrecipitationIn, CloudCover, Events, WindDirDegrees
2014-1-1,79,72,65,71,68,64,100,87,74,29.99,29.94,29.86,10,8,0,13,5,16,0.01,4,Rain,193
2014-1-2,83,75,66,71,67,62,97,76,55,29.91,29.84,29.73,10,10,10,20,8,25,0.00,3,,196
2014-1-3,79,72,64,69,65,60,93,80,67,29.88,29.80,29.74,10,10,10,20,8,26,T,6,,328
2014-1-4,77,72,66,66,63,60,93,79,64,29.97,29.91,29.85,10,10,7,20,11,24,0.01,8,Rain,348
2014-1-5,75,69,63,66,64,59,100,85,69,29.99,29.94,29.88,10,10,5,18,8,24,0.04,7,Rain,348
2014-1-6,77,69,61,63,59,54,87,71,54,30.06,30.00,29.95,10,10,8,24,12,35,0.14,3,Rain,334
2014-1-7,80,71,61,66,60,56,87,69,50,30.09,30.03,29.98,10,10,6,21,12,28,T,3,Rain,344
2014-1-8,77,70,62,65,62,56,93,75,56,30.03,29.98,29.91,10,10,10,23,10,29,T,3,Rain,334
2014-1-9,81,71,61,67,61,50,100,77,53,30.03,29.97,29.89,10,10,10,14,7,22,0.00,2,,207
2014-1-10,80,71,62,68,63,56,93,77,61,30.01,29.96,29.89,10,10,8,12,7,16,0.02,2,Rain,218
2014-1-11,82,73,64,74,69,61,100,87,74,30.01,29.94,29.90,10,10,9,15,7,20,0.08,6,Rain,180
2014-1-12,81,74,66,72,69,65,100,87,74,30.01,29.97,29.92,10,9,2,18,8,24,0.90,6,Rain-Thunderstorm,193
2014-1-13,82,74,65,70,65,60,100,84,67,30.00,29.94,29.87,10,10,10,17,8,23,T,3,Rain,202
2014-1-14,81,72,63,69,64,57,93,74,54,29.94,29.89,29.83,10,10,6,12,6,14,0.00,3,,249
2014-1-15,82,74,65,70,65,57,93,76,58,29.94,29.89,29.84,10,10,5,12,6,15,0.00,3,,243
2014-1-16,84,74,64,69,64,57,93,76,58,30.00,29.94,29.88,10,10,6,13,6,16,0.00,3,,235
2014-1-17,82,73,63,69,66,58,100,81,62,30.04,30.00,29.94,10,10,10,13,5,18,0.00,3,,186
2014-1-18,81,73,64,68,65,58,100,82,64,30.05,30.00,29.94,10,10,10,12,5,15,0.00,3,,214
2014-1-19,80,72,63,69,64,55,100,79,57,29.98,29.93,29.89,10,10,10,10,5,14,0.00,3,,263
2014-1-20,80,72,64,69,66,61,93,76,58,29.96,29.92,29.87,10,10,9,10,5,13,0.00,5,,203
2014-1-21,82,73,63,68,64,59,93,78,62,29.92,29.88,29.81,10,10,6,16,6,19,0.00,3,,253
2014-1-22,84,72,60,69,63,55,90,71,51,29.87,29.80,29.74,10,10,10,33,12,47,T,2,,331
2014-1-23,77,68,58,59,55,52,86,65,43,29.97,29.91,29.83,10,10,10,30,7,37,0.00,4,,308
2014-1-24,77,69,60,63,58,52,87,73,58,29.94,29.88,29.81,10,10,10,12,6,16,0.00,4,,186
2014-1-25,80,70,59,65,61,54,97,76,54,29.88,29.83,29.78,10,10,10,15,6,18,0.00,3,,266
2014-1-26,84,74,64,65,60,53,93,69,44,29.92,29.87,29.80,10,10,6,13,6,18,0.00,3,,221
2014-1-27,83,73,63,70,65,54,100,77,54,30.00,29.93,29.87,10,9,2,18,9,23,0.41,5,Rain,356
2014-1-28,70,67,63,70,66,63,100,97,93,30.11,30.05,30.00,10,6,1,23,10,31,3.05,8,Rain,320
2014-1-29,80,71,61,70,65,59,100,81,62,30.06,30.01,29.96,10,8,2,16,6,20,0.81,6,Rain,269
2014-1-30,82,73,64,70,65,61,100,81,62,30.01,29.94,29.86,10,10,2,24,7,29,0.19,3,Rain,194
2014-1-31,84,74,64,69,66,62,93,76,58,29.94,29.88,29.81,10,10,10,21,8,28,0.00,4,,177